Time;durP1;ratioP1;P1;durP2;ratioP2;P2;SDS_P1;SDS_P2;PMS_P1;PMS_P2;Temp;Humidity;BMP_temperature;BMP_pressure;BME280_temperature;BME280_humidity;BME280_pressure;Samples;Min_cycle;Max_cycle;Signal;HPM_P1;HPM_P2
2021/04/19 00:01:52;;;;;;;25.13;14.15;;;;;;;8.84;83.34;100854.50;10350586;28;20237;-75
2021/04/19 00:06:54;;;;;;;26.20;14.32;;;;;;;8.84;83.05;100857.16;10348822;28;20238;-74
2021/04/19 00:11:57;;;;;;;28.90;14.35;;;;;;;8.90;83.15;100847.88;10348676;28;20223;-75
2021/04/19 00:16:59;;;;;;;29.45;14.10;;;;;;;8.90;82.97;100843.38;10318175;28;20783;-75
2021/04/19 00:22:01;;;;;;;26.38;13.93;;;;;;;8.74;82.75;100839.97;10310745;28;20239;-74
2021/04/19 00:27:05;;;;;;;28.02;14.02;;;;;;;8.38;82.31;100828.88;10292444;28;20670;-75
2021/04/19 00:32:07;;;;;;;22.83;13.95;;;;;;;8.39;82.81;100830.59;10294223;28;20231;-75
2021/04/19 00:37:10;;;;;;;25.98;14.82;;;;;;;8.40;82.82;100831.47;10308641;28;20245;-75
2021/04/19 00:42:13;;;;;;;29.73;14.02;;;;;;;8.57;83.08;100833.06;10306635;28;20231;-75
2021/04/19 00:47:15;;;;;;;29.80;15.20;;;;;;;8.82;83.11;100825.13;10307207;28;20239;-75
2021/04/19 00:52:19;;;;;;;28.30;14.30;;;;;;;8.83;83.00;100816.13;10306807;28;20692;-75
2021/04/19 00:57:22;;;;;;;25.88;13.95;;;;;;;8.84;82.75;100819.66;10307936;28;20241;-74
2021/04/19 01:02:24;;;;;;;27.02;14.30;;;;;;;8.76;82.84;100820.16;10289051;28;20326;-75
2021/04/19 01:07:26;;;;;;;28.00;13.82;;;;;;;8.70;82.89;100830.44;10308460;28;20239;-75
2021/04/19 01:12:30;;;;;;;27.10;14.50;;;;;;;8.67;82.81;100828.81;10306206;28;20235;-75
2021/04/19 01:17:32;;;;;;;26.10;13.40;;;;;;;8.66;82.60;100831.59;10341414;28;20371;-75
2021/04/19 01:22:36;;;;;;;23.15;12.23;;;;;;;8.59;82.90;100834.69;10346658;28;20729;-75
2021/04/19 01:27:40;;;;;;;17.23;10.98;;;;;;;8.53;82.76;100820.81;10330004;28;20246;-75
2021/04/19 01:32:42;;;;;;;18.25;10.43;;;;;;;8.52;82.85;100821.78;10345970;28;20231;-75
2021/04/19 01:37:45;;;;;;;14.65;9.30;;;;;;;8.45;82.69;100821.31;10348691;28;20311;-76
2021/04/19 01:42:48;;;;;;;14.73;8.30;;;;;;;8.53;82.74;100820.81;10328276;28;20321;-75
2021/04/19 01:47:54;;;;;;;21.67;10.85;;;;;;;8.42;82.58;100817.97;10327935;28;20299;-75
2021/04/19 01:53:00;;;;;;;16.70;9.60;;;;;;;8.46;82.71;100819.53;10350296;28;20222;-75
2021/04/19 01:58:07;;;;;;;16.55;9.05;;;;;;;8.56;82.88;100828.69;10335239;28;20663;-75
2021/04/19 02:03:28;;;;;;;14.02;8.68;;;;;;;8.60;82.78;100817.66;10337971;28;20236;-75
2021/04/19 02:08:39;;;;;;;12.95;8.07;;;;;;;8.62;82.61;100820.25;10336927;28;20236;-75
2021/04/19 02:13:49;;;;;;;14.13;8.10;;;;;;;8.54;82.57;100823.41;10353048;28;20234;-74
2021/04/19 02:18:59;;;;;;;12.50;8.18;;;;;;;8.51;82.54;100820.09;10352554;28;20234;-75
2021/04/19 02:24:07;;;;;;;13.13;8.18;;;;;;;8.42;82.72;100826.00;10350699;28;20233;-75
2021/04/19 02:29:13;;;;;;;15.07;8.75;;;;;;;8.36;82.50;100816.53;10353136;28;20862;-75
2021/04/19 02:34:19;;;;;;;11.85;7.70;;;;;;;8.23;82.62;100826.31;10351089;28;20257;-74
2021/04/19 02:39:24;;;;;;;14.10;7.25;;;;;;;8.03;82.50;100830.28;10336447;28;20947;-75
2021/04/19 02:44:28;;;;;;;11.85;7.43;;;;;;;7.88;82.58;100832.97;10349807;28;20240;-75
2021/04/19 02:49:38;;;;;;;12.15;7.53;;;;;;;7.89;82.62;100832.00;10353060;28;20376;-75
2021/04/19 02:54:43;;;;;;;15.00;8.52;;;;;;;8.02;82.66;100828.56;10352072;28;20707;-74
2021/04/19 02:59:47;;;;;;;15.73;9.77;;;;;;;8.20;82.57;100831.88;10351202;28;21805;-75
2021/04/19 03:04:50;;;;;;;16.52;9.88;;;;;;;8.26;82.32;100835.03;10351693;28;20230;-75
2021/04/19 03:10:01;;;;;;;18.15;9.90;;;;;;;8.24;82.40;100831.59;10351273;28;20230;-75
2021/04/19 03:15:08;;;;;;;20.90;11.18;;;;;;;8.25;82.49;100821.72;10350979;28;20238;-75
2021/04/19 03:20:17;;;;;;;24.70;13.00;;;;;;;8.34;82.43;100823.84;10336405;28;20309;-74
2021/04/19 03:25:38;;;;;;;28.35;15.00;;;;;;;8.34;82.49;100813.13;10333303;28;20269;-76
2021/04/19 03:30:41;;;;;;;27.70;12.80;;;;;;;8.28;82.39;100813.50;10350910;28;20238;-75
2021/04/19 03:35:50;;;;;;;21.35;11.15;;;;;;;8.21;82.47;100804.16;10350143;28;20234;-75
2021/04/19 03:40:56;;;;;;;19.27;11.35;;;;;;;8.04;82.46;100816.81;10332589;28;20805;-75
2021/04/19 03:46:04;;;;;;;18.45;10.80;;;;;;;7.89;82.49;100810.59;10333238;28;20313;-74
2021/04/19 03:51:17;;;;;;;20.60;11.32;;;;;;;7.85;82.60;100824.28;10351939;28;20715;-76
2021/04/19 03:56:30;;;;;;;24.55;12.60;;;;;;;7.87;82.59;100823.22;10350628;28;20388;-76
2021/04/19 04:01:38;;;;;;;20.25;11.73;;;;;;;7.86;82.31;100816.13;10334941;28;20242;-75
2021/04/19 04:06:43;;;;;;;23.88;13.07;;;;;;;7.73;82.36;100816.06;10334026;28;20239;-75
2021/04/19 04:11:48;;;;;;;28.88;14.10;;;;;;;7.65;82.16;100822.81;10335179;28;20334;-75
2021/04/19 04:17:19;;;;;;;26.88;13.90;;;;;;;7.52;81.99;100825.41;10266529;28;20244;-76
2021/04/19 04:22:45;;;;;;;26.50;14.95;;;;;;;7.48;82.51;100821.19;10262037;28;20892;-74
2021/04/19 04:27:50;;;;;;;33.15;16.80;;;;;;;7.61;82.44;100827.50;10266897;28;20246;-74
2021/04/19 04:32:52;;;;;;;36.35;17.17;;;;;;;7.69;82.40;100827.03;10265923;28;20235;-76
2021/04/19 04:37:59;;;;;;;35.17;18.05;;;;;;;7.77;82.36;100830.09;10267879;28;20302;-75
2021/04/19 04:43:14;;;;;;;42.67;18.52;;;;;;;7.91;82.57;100826.56;10283780;28;20285;-76
2021/04/19 04:48:22;;;;;;;36.38;19.75;;;;;;;7.89;82.42;100834.66;10269022;28;21536;-75
2021/04/19 04:53:27;;;;;;;46.65;20.23;;;;;;;7.99;82.65;100832.28;10276643;28;20246;-75
2021/04/19 04:58:32;;;;;;;45.28;20.15;;;;;;;8.04;82.63;100822.16;10269643;28;20294;-75
2021/04/19 05:03:37;;;;;;;47.50;21.77;;;;;;;8.12;82.64;100824.34;10266879;28;21942;-76
2021/04/19 05:08:47;;;;;;;47.95;20.85;;;;;;;8.16;82.30;100840.09;10267410;28;20726;-75
2021/04/19 05:13:50;;;;;;;45.35;20.50;;;;;;;8.25;82.92;100849.34;10267134;28;20228;-75
2021/04/19 05:18:52;;;;;;;47.30;21.80;;;;;;;8.30;82.75;100846.38;10266625;28;20254;-75
2021/04/19 05:23:55;;;;;;;47.08;21.02;;;;;;;8.28;82.62;100848.28;10271106;28;20322;-75
2021/04/19 05:28:58;;;;;;;46.25;21.73;;;;;;;8.34;82.55;100848.78;10270658;28;20525;-74
2021/04/19 05:34:00;;;;;;;44.83;21.67;;;;;;;8.46;82.90;100847.16;10275572;28;20251;-74
2021/04/19 05:39:03;;;;;;;45.47;21.50;;;;;;;8.57;82.76;100857.16;10266666;28;20320;-74
2021/04/19 05:44:07;;;;;;;43.60;20.65;;;;;;;8.65;82.77;100862.03;10264774;28;20223;-74
2021/04/19 05:49:09;;;;;;;47.08;21.25;;;;;;;8.72;82.96;100866.00;10266763;28;20254;-75
2021/04/19 05:54:13;;;;;;;44.03;23.05;;;;;;;8.79;82.93;100873.53;10266582;28;20239;-75
2021/04/19 05:59:21;;;;;;;46.95;22.40;;;;;;;8.86;83.14;100875.81;10265636;28;20800;-76
2021/04/19 06:04:29;;;;;;;45.75;23.50;;;;;;;8.93;82.87;100878.00;10267018;28;20254;-74
2021/04/19 06:09:39;;;;;;;58.40;27.65;;;;;;;9.12;83.31;100882.13;10267201;28;20240;-75
2021/04/19 06:15:15;;;;;;;53.38;28.95;;;;;;;9.33;83.00;100877.16;10221606;28;20282;-75
2021/04/19 06:20:19;;;;;;;46.67;24.02;;;;;;;9.22;82.61;100878.72;10267084;28;20236;-75
2021/04/19 06:25:24;;;;;;;50.88;23.55;;;;;;;9.14;82.57;100883.75;10262985;28;20240;-75
2021/04/19 06:30:30;;;;;;;53.35;24.70;;;;;;;9.15;82.60;100884.59;10266376;28;20725;-75
2021/04/19 06:35:32;;;;;;;47.63;22.40;;;;;;;9.30;83.03;100888.94;10275533;28;20514;-75
2021/04/19 06:40:36;;;;;;;47.35;22.42;;;;;;;9.45;82.82;100887.88;10274388;28;20246;-75
2021/04/19 06:45:40;;;;;;;50.42;22.70;;;;;;;9.37;82.54;100881.31;10272239;28;20960;-75
2021/04/19 06:50:42;;;;;;;52.20;21.60;;;;;;;9.37;82.02;100889.38;10274334;28;20239;-75
2021/04/19 06:55:43;;;;;;;54.60;22.92;;;;;;;9.37;82.68;100876.81;10272921;28;20242;-75
2021/04/19 07:00:52;;;;;;;54.63;23.88;;;;;;;9.40;82.71;100895.38;10272742;28;20743;-76
2021/04/19 07:05:55;;;;;;;51.10;23.90;;;;;;;9.45;82.35;100887.88;10273178;28;20244;-75
2021/04/19 07:11:02;;;;;;;55.03;23.85;;;;;;;9.43;82.29;100895.16;10289540;28;20240;-75
2021/04/19 07:16:06;;;;;;;49.20;22.90;;;;;;;9.26;82.35;100901.66;10289858;28;20267;-75
2021/04/19 07:21:11;;;;;;;52.72;22.20;;;;;;;9.12;82.62;100884.81;10312833;28;21455;-75
2021/04/19 07:26:13;;;;;;;56.42;25.00;;;;;;;9.14;82.50;100896.28;10308442;28;20239;-75
2021/04/19 07:31:16;;;;;;;52.10;23.98;;;;;;;9.16;82.18;100910.44;10309994;28;20613;-75
2021/04/19 07:36:20;;;;;;;46.55;22.60;;;;;;;9.20;82.63;100898.56;10309593;28;20241;-75
2021/04/19 07:41:43;;;;;;;51.80;23.15;;;;;;;9.14;82.07;100905.19;10312699;28;20625;-75
2021/04/19 07:46:45;;;;;;;53.45;24.80;;;;;;;9.03;82.34;100899.69;10310706;28;20242;-75
2021/04/19 07:58:34;;;;;;;51.50;23.63;;;;;;;9.82;82.18;100896.09;10271065;28;20231;-75
2021/04/19 08:03:39;;;;;;;49.20;22.30;;;;;;;10.11;81.90;100891.34;10253167;28;20254;-76
2021/04/19 08:08:41;;;;;;;48.60;22.90;;;;;;;10.19;81.35;100888.13;10269617;28;20246;-76
2021/04/19 08:13:45;;;;;;;45.75;21.52;;;;;;;10.76;82.82;100884.00;10262118;28;20230;-74
2021/04/19 08:18:49;;;;;;;41.45;20.88;;;;;;;11.24;81.61;100887.59;10348483;28;20729;-76
2021/04/19 08:23:51;;;;;;;42.33;20.10;;;;;;;11.09;80.53;100894.06;10350865;28;21042;-75
2021/04/19 08:28:53;;;;;;;43.05;20.17;;;;;;;10.65;80.37;100897.38;10347712;28;20230;-77
2021/04/19 08:33:56;;;;;;;36.25;18.45;;;;;;;10.77;81.51;100894.63;10349232;28;21019;-76
2021/04/19 08:38:58;;;;;;;38.30;18.65;;;;;;;11.03;80.61;100897.22;10348480;28;20234;-75
2021/04/19 08:44:02;;;;;;;36.72;17.95;;;;;;;10.78;79.68;100895.53;10349691;28;20261;-76
2021/04/19 08:49:05;;;;;;;38.92;18.63;;;;;;;10.59;79.79;100898.69;10281802;28;20796;-75
2021/04/19 08:54:08;;;;;;;35.13;17.88;;;;;;;10.71;80.62;100894.25;10268211;28;20902;-75
2021/04/19 08:59:12;;;;;;;41.33;18.35;;;;;;;12.59;83.89;100890.44;10271823;28;20250;-73
2021/04/19 09:04:21;;;;;;;35.10;17.27;;;;;;;13.99;77.08;100883.19;10278343;28;20242;-74
2021/04/19 09:09:41;;;;;;;31.67;17.10;;;;;;;13.86;74.42;100896.91;10285186;28;20238;-75
2021/04/19 09:14:43;;;;;;;32.40;17.52;;;;;;;13.94;72.90;100881.75;10293733;28;20873;-76
2021/04/19 09:19:55;;;;;;;32.22;17.27;;;;;;;14.03;70.42;100890.03;10306765;28;20808;-75
2021/04/19 09:25:01;;;;;;;28.15;14.75;;;;;;;13.67;72.88;100892.25;10306697;28;20226;-76
2021/04/19 09:30:26;;;;;;;31.40;15.68;;;;;;;13.30;75.67;100910.69;10308527;28;20772;-75
2021/04/19 09:35:41;;;;;;;28.75;15.40;;;;;;;13.30;70.13;100905.28;10309437;28;20234;-75
2021/04/19 09:40:48;;;;;;;33.28;17.13;;;;;;;12.48;73.42;100911.13;10310804;28;20262;-75
2021/04/19 09:45:53;;;;;;;30.05;15.50;;;;;;;12.16;72.65;100909.16;10306653;28;20230;-75
2021/04/19 09:51:16;;;;;;;40.13;19.17;;;;;;;13.30;74.54;100898.03;10307747;28;20234;-76
2021/04/19 09:56:22;;;;;;;30.10;15.38;;;;;;;15.57;60.27;100901.34;10276306;28;20240;-77
2021/04/19 10:01:26;;;;;;;25.55;14.57;;;;;;;16.02;58.22;100893.41;10265735;28;20232;-77
2021/04/19 10:06:36;;;;;;;30.73;15.18;;;;;;;15.40;57.81;100894.81;10267621;28;20234;-73
2021/04/19 10:11:41;;;;;;;25.70;14.27;;;;;;;16.65;59.71;100900.00;10305198;28;20223;-74
2021/04/19 10:16:45;;;;;;;25.83;14.27;;;;;;;17.20;56.81;100894.53;10311017;28;20238;-75
2021/04/19 10:21:57;;;;;;;29.60;15.65;;;;;;;17.88;48.24;100886.59;10311519;28;20273;-76
2021/04/19 10:26:59;;;;;;;29.20;16.45;;;;;;;17.09;51.64;100889.31;10294536;28;20238;-76
2021/04/19 10:32:03;;;;;;;27.45;16.20;;;;;;;15.34;50.79;100884.53;10295795;28;20261;-77
2021/04/19 10:37:06;;;;;;;26.58;14.60;;;;;;;14.99;54.72;100880.53;10315085;28;20316;-77
2021/04/19 10:42:08;;;;;;;25.63;14.45;;;;;;;15.18;50.60;100879.69;10314737;28;20231;-76
2021/04/19 10:47:12;;;;;;;22.35;13.32;;;;;;;16.24;48.14;100875.09;10314669;28;20743;-77
2021/04/19 10:52:14;;;;;;;21.25;12.73;;;;;;;15.77;51.12;100872.38;10296799;28;20617;-77
2021/04/19 10:57:21;;;;;;;23.27;13.68;;;;;;;16.20;50.83;100869.09;10294020;28;20754;-76
2021/04/19 11:02:24;;;;;;;22.65;12.82;;;;;;;15.93;47.03;100859.06;10313762;28;20922;-76
2021/04/19 11:07:29;;;;;;;21.35;12.32;;;;;;;14.90;51.43;100865.16;10324589;28;20600;-77
2021/04/19 11:12:31;;;;;;;22.27;12.18;;;;;;;13.89;49.88;100873.19;10318389;28;20242;-76
2021/04/19 11:17:33;;;;;;;20.20;12.00;;;;;;;13.83;51.31;100867.47;10278127;28;20248;-76
2021/04/19 11:22:36;;;;;;;20.85;11.20;;;;;;;14.12;50.78;100868.50;10275219;28;20238;-76
2021/04/19 11:27:47;;;;;;;21.40;11.73;;;;;;;13.98;50.84;100866.13;10275802;28;20232;-76
2021/04/19 11:33:01;;;;;;;19.75;11.18;;;;;;;13.87;49.93;100868.91;10272840;28;20615;-76
2021/04/19 11:38:06;;;;;;;21.05;12.65;;;;;;;13.98;49.71;100858.03;10271694;28;20235;-76
2021/04/19 11:43:18;;;;;;;20.92;12.77;;;;;;;14.28;49.25;100864.41;10273614;28;20236;-76
2021/04/19 11:48:20;;;;;;;25.02;12.10;;;;;;;15.02;46.79;100862.16;10274977;28;20240;-76
2021/04/19 11:53:25;;;;;;;22.05;12.85;;;;;;;15.69;45.84;100865.00;10273559;28;20240;-77
2021/04/19 11:58:28;;;;;;;17.73;11.05;;;;;;;15.31;44.44;100865.88;10273304;28;20254;-76
2021/04/19 12:03:29;;;;;;;15.27;10.25;;;;;;;15.25;44.13;100861.91;10273675;28;20239;-76
2021/04/19 12:08:33;;;;;;;18.90;12.30;;;;;;;14.98;43.50;100863.44;10270828;28;20621;-77
2021/04/19 12:13:35;;;;;;;19.02;12.43;;;;;;;15.26;43.86;100858.19;10270967;28;20730;-76
2021/04/19 12:18:39;;;;;;;20.35;11.27;;;;;;;15.99;43.27;100860.31;10272246;28;20406;-77
2021/04/19 12:23:43;;;;;;;19.17;11.85;;;;;;;17.08;41.59;100857.72;10268546;28;20267;-76
2021/04/19 12:28:49;;;;;;;19.95;12.60;;;;;;;17.82;39.67;100853.75;10271350;28;20338;-76
2021/04/19 12:33:51;;;;;;;19.90;12.32;;;;;;;16.96;41.65;100860.69;10268545;28;20236;-76
2021/04/19 12:38:54;;;;;;;17.40;11.68;;;;;;;18.87;38.55;100843.50;10272809;28;20239;-77
2021/04/19 12:43:55;;;;;;;15.70;10.32;;;;;;;20.49;34.50;100838.88;10271839;28;20299;-77
2021/04/19 12:48:58;;;;;;;17.27;11.15;;;;;;;20.52;34.01;100834.94;10270647;28;20242;-77
2021/04/19 12:54:00;;;;;;;15.95;10.27;;;;;;;20.50;34.29;100828.81;10271566;28;20235;-77
2021/04/19 12:59:05;;;;;;;15.43;10.43;;;;;;;20.89;32.17;100834.19;10271037;28;20236;-77
2021/04/19 13:04:08;;;;;;;18.55;11.65;;;;;;;20.74;33.14;100825.09;10271870;28;20381;-77
2021/04/19 13:09:11;;;;;;;17.67;10.95;;;;;;;21.28;32.53;100827.75;10270958;28;20251;-78
2021/04/19 13:14:12;;;;;;;18.92;11.13;;;;;;;19.89;33.98;100821.19;10269279;28;20267;-77
2021/04/19 13:19:14;;;;;;;18.63;11.15;;;;;;;19.03;34.76;100824.47;10270266;28;20748;-77
2021/04/19 13:24:19;;;;;;;19.58;11.48;;;;;;;18.27;37.62;100829.03;10267446;28;20239;-77
2021/04/19 13:29:21;;;;;;;18.02;11.40;;;;;;;17.63;38.87;100823.06;10269211;28;20235;-76
2021/04/19 13:34:23;;;;;;;17.70;11.00;;;;;;;17.16;38.73;100827.97;10267282;28;20224;-77
2021/04/19 13:39:26;;;;;;;19.13;12.05;;;;;;;16.86;40.07;100827.31;10269798;28;20270;-75
2021/04/19 13:44:28;;;;;;;20.92;12.15;;;;;;;16.78;40.73;100824.53;10265871;28;20243;-76
2021/04/19 13:49:30;;;;;;;16.98;10.48;;;;;;;17.63;38.81;100806.75;10283805;28;20246;-75
2021/04/19 13:54:32;;;;;;;16.38;10.52;;;;;;;18.94;36.66;100806.44;10278294;28;20239;-76
2021/04/19 13:59:35;;;;;;;16.60;10.07;;;;;;;20.65;32.76;100804.31;10264448;28;20310;-76
2021/04/19 14:04:37;;;;;;;14.10;9.25;;;;;;;18.72;35.81;100797.88;10279726;28;20228;-76
2021/04/19 14:09:40;;;;;;;15.80;10.55;;;;;;;17.52;37.44;100795.31;10283001;28;20254;-75
2021/04/19 14:14:42;;;;;;;16.25;10.77;;;;;;;17.91;37.00;100790.28;10275333;28;20235;-75
2021/04/19 14:19:43;;;;;;;16.63;10.32;;;;;;;19.61;35.08;100788.03;10245577;28;20322;-76
2021/04/19 14:24:46;;;;;;;17.42;11.35;;;;;;;21.15;32.63;100772.94;10277376;28;20231;-76
2021/04/19 14:29:48;;;;;;;19.38;12.65;;;;;;;21.99;32.80;100776.28;10292783;28;20235;-76
2021/04/19 14:34:51;;;;;;;19.33;12.25;;;;;;;21.31;33.73;100775.50;10347326;28;20722;-76
2021/04/19 14:39:54;;;;;;;23.40;13.20;;;;;;;19.06;37.40;100782.44;10361156;28;20375;-76
2021/04/19 14:44:56;;;;;;;20.80;12.88;;;;;;;17.40;39.61;100779.28;10320570;28;20640;-76
2021/04/19 14:49:59;;;;;;;19.70;12.82;;;;;;;16.68;40.81;100778.50;10337220;28;20632;-76
2021/04/19 14:55:03;;;;;;;20.02;13.00;;;;;;;16.39;41.55;100784.13;10358970;28;20615;-75
2021/04/19 15:00:07;;;;;;;19.85;12.63;;;;;;;16.30;42.40;100782.34;10314234;28;20340;-75
2021/04/19 15:05:10;;;;;;;17.95;11.23;;;;;;;16.52;41.87;100772.94;10266533;28;20228;-74
2021/04/19 15:10:14;;;;;;;20.48;12.70;;;;;;;16.15;43.01;100782.84;10256879;28;20235;-75
2021/04/19 15:15:16;;;;;;;22.63;13.43;;;;;;;15.65;43.80;100776.91;10288605;28;20231;-74
2021/04/19 15:20:18;;;;;;;22.67;13.40;;;;;;;15.42;45.07;100774.56;10264392;28;20255;-74
2021/04/19 15:25:21;;;;;;;25.85;14.38;;;;;;;15.37;46.87;100786.84;10286358;28;20236;-75
2021/04/19 15:30:23;;;;;;;25.25;14.07;;;;;;;15.33;47.39;100780.84;10270128;28;20236;-76
2021/04/19 15:35:25;;;;;;;24.92;14.90;;;;;;;15.19;47.18;100786.69;10269268;28;20242;-74
2021/04/19 15:40:28;;;;;;;20.83;13.43;;;;;;;15.26;46.98;100779.69;10279271;28;20232;-74
2021/04/19 15:45:30;;;;;;;29.33;14.52;;;;;;;15.91;45.40;100790.66;10277249;28;20319;-74
2021/04/19 15:50:32;;;;;;;22.85;13.68;;;;;;;17.60;42.64;100768.22;10266987;28;20248;-74
2021/04/19 15:55:36;;;;;;;23.98;14.48;;;;;;;18.52;40.23;100775.56;10269780;28;20239;-74
2021/04/19 16:00:38;;;;;;;22.90;14.20;;;;;;;18.10;40.56;100779.19;10269527;28;20371;-75
2021/04/19 16:05:40;;;;;;;21.15;12.75;;;;;;;17.12;42.79;100777.72;10267305;28;20921;-75
2021/04/19 16:10:42;;;;;;;24.30;14.40;;;;;;;16.88;43.05;100772.91;10266588;28;20232;-75
2021/04/19 16:15:45;;;;;;;23.27;13.60;;;;;;;17.81;41.70;100771.38;10310139;28;20229;-75
2021/04/19 16:20:47;;;;;;;20.23;13.18;;;;;;;18.75;38.90;100770.31;10349488;28;20248;-74
2021/04/19 16:25:50;;;;;;;21.15;13.68;;;;;;;19.22;37.51;100766.09;10265494;28;20236;-75
2021/04/19 16:30:52;;;;;;;18.75;12.45;;;;;;;18.54;38.86;100768.09;10294649;28;20278;-74
2021/04/19 16:35:54;;;;;;;20.73;12.93;;;;;;;18.37;39.29;100763.63;10257846;28;21819;-76
2021/04/19 16:40:57;;;;;;;22.52;13.85;;;;;;;18.17;39.32;100773.94;10308365;28;20230;-74
2021/04/19 16:46:00;;;;;;;19.98;13.15;;;;;;;17.84;39.91;100753.91;10310848;28;20280;-74
2021/04/19 16:51:02;;;;;;;22.48;13.20;;;;;;;17.53;40.14;100749.00;10348165;28;20339;-75
2021/04/19 16:56:06;;;;;;;20.95;12.65;;;;;;;17.02;41.06;100756.06;10348099;28;20234;-75
2021/04/19 17:01:08;;;;;;;19.80;12.38;;;;;;;16.49;42.13;100770.53;10349536;28;20254;-76
2021/04/19 17:06:10;;;;;;;23.48;13.65;;;;;;;15.65;43.25;100760.66;10292055;28;20886;-76
2021/04/19 17:11:14;;;;;;;22.33;12.50;;;;;;;15.13;45.26;100757.50;10306241;28;20235;-75
2021/04/19 17:16:16;;;;;;;21.00;12.88;;;;;;;15.14;45.00;100754.66;10312660;28;20250;-76
2021/04/19 17:21:23;;;;;;;22.42;13.45;;;;;;;14.84;46.62;100758.41;10326042;28;20626;-76
2021/04/19 17:26:27;;;;;;;22.92;12.93;;;;;;;14.50;47.36;100755.25;10306810;28;20250;-74
2021/04/19 17:31:29;;;;;;;23.00;13.90;;;;;;;14.35;48.70;100757.47;10308525;28;20250;-75
2021/04/19 17:36:31;;;;;;;24.20;14.60;;;;;;;14.20;49.53;100759.72;10309504;28;20374;-75
2021/04/19 17:41:36;;;;;;;23.88;13.85;;;;;;;13.98;50.09;100757.25;10306686;28;20723;-74
2021/04/19 17:46:38;;;;;;;23.85;14.45;;;;;;;13.66;50.41;100751.03;10279683;28;20240;-74
2021/04/19 17:51:40;;;;;;;25.90;14.48;;;;;;;13.47;51.43;100765.28;10248122;28;20235;-75
2021/04/19 17:56:43;;;;;;;24.55;14.45;;;;;;;13.26;52.57;100759.00;10264056;28;20250;-76
2021/04/19 18:01:46;;;;;;;25.52;14.73;;;;;;;13.15;53.04;100756.38;10263177;28;20244;-75
2021/04/19 18:06:48;;;;;;;24.77;15.80;;;;;;;13.01;53.90;100760.28;10266375;28;20240;-74
2021/04/19 18:11:52;;;;;;;29.53;17.07;;;;;;;12.81;54.38;100761.97;10268842;28;20596;-75
2021/04/19 18:16:54;;;;;;;27.67;16.25;;;;;;;12.63;54.92;100763.50;10272999;28;20757;-75
2021/04/19 18:21:56;;;;;;;28.85;16.50;;;;;;;12.48;55.47;100771.03;10291265;28;20273;-74
2021/04/19 18:26:59;;;;;;;28.35;16.33;;;;;;;12.41;55.88;100765.31;10264840;28;20231;-74
2021/04/19 18:32:01;;;;;;;28.98;17.25;;;;;;;12.39;56.02;100773.50;10271139;28;20338;-75
2021/04/19 18:37:03;;;;;;;30.10;16.25;;;;;;;12.28;56.50;100772.66;10279103;28;20371;-75
2021/04/19 18:42:06;;;;;;;30.63;17.38;;;;;;;12.22;56.82;100775.84;10276122;28;20228;-75
2021/04/19 18:47:08;;;;;;;27.92;16.60;;;;;;;12.10;57.07;100783.94;10268743;28;20243;-76
2021/04/19 18:52:10;;;;;;;30.42;18.40;;;;;;;12.07;57.34;100786.03;10270640;28;20287;-75
2021/04/19 18:57:15;;;;;;;32.40;18.33;;;;;;;12.08;57.44;100787.75;10268867;28;20251;-75
2021/04/19 19:02:18;;;;;;;30.70;18.23;;;;;;;12.13;57.28;100790.94;10270382;28;20244;-74
2021/04/19 19:07:20;;;;;;;32.75;17.98;;;;;;;12.08;57.56;100793.97;10272448;28;20254;-74
2021/04/19 19:12:23;;;;;;;31.17;18.30;;;;;;;12.09;57.38;100801.06;10272029;28;20243;-74
2021/04/19 19:17:25;;;;;;;28.95;18.35;;;;;;;12.14;57.34;100795.31;10285289;28;20239;-76
2021/04/19 19:22:27;;;;;;;31.83;18.50;;;;;;;12.09;57.39;100797.53;10311027;28;20243;-74
2021/04/19 19:27:30;;;;;;;35.50;19.77;;;;;;;12.07;57.27;100792.28;10310757;28;20238;-74
2021/04/19 19:32:33;;;;;;;32.72;18.60;;;;;;;12.09;57.56;100798.38;10308803;28;20692;-74
2021/04/19 19:37:35;;;;;;;32.63;18.52;;;;;;;12.08;57.62;100804.75;10309405;28;20250;-74
2021/04/19 19:42:38;;;;;;;33.10;20.05;;;;;;;12.12;57.65;100792.78;10309940;28;20755;-74
2021/04/19 19:47:40;;;;;;;36.95;19.77;;;;;;;12.06;57.58;100793.25;10301347;28;20270;-75
2021/04/19 19:52:42;;;;;;;33.15;19.02;;;;;;;11.93;58.03;100798.78;10294706;28;20254;-76
2021/04/19 19:57:45;;;;;;;37.67;19.75;;;;;;;11.86;57.72;100792.16;10309709;28;20318;-74
2021/04/19 20:02:47;;;;;;;36.95;19.70;;;;;;;11.71;57.99;100794.25;10308738;28;20239;-74
2021/04/19 20:07:49;;;;;;;31.45;18.05;;;;;;;11.21;59.45;100785.59;10311585;28;20250;-74
2021/04/19 20:12:53;;;;;;;33.92;18.55;;;;;;;11.19;59.67;100792.97;10311063;28;20250;-74
2021/04/19 20:17:55;;;;;;;36.28;18.83;;;;;;;11.26;59.78;100787.94;10310394;28;20234;-74
2021/04/19 20:22:57;;;;;;;34.58;18.60;;;;;;;11.27;59.93;100786.97;10308667;28;20253;-74
2021/04/19 20:28:00;;;;;;;34.53;18.05;;;;;;;11.32;59.89;100778.53;10308010;28;20637;-76
2021/04/19 20:33:02;;;;;;;36.58;19.88;;;;;;;11.30;60.05;100791.25;10311518;28;20235;-73
2021/04/19 20:38:04;;;;;;;35.78;18.52;;;;;;;11.24;59.84;100785.41;10310365;28;21517;-74
2021/04/19 20:43:07;;;;;;;35.80;20.08;;;;;;;11.19;59.93;100779.50;10309091;28;20235;-74
2021/04/19 20:48:10;;;;;;;33.60;19.88;;;;;;;11.20;60.13;100778.53;10309362;28;20645;-74
2021/04/19 20:53:12;;;;;;;39.33;22.05;;;;;;;11.17;60.24;100776.06;10269456;28;20236;-74
2021/04/19 20:58:15;;;;;;;44.03;22.25;;;;;;;11.19;60.37;100767.88;10267322;28;20240;-74
2021/04/19 21:03:19;;;;;;;42.55;21.90;;;;;;;11.22;60.45;100770.34;10268262;28;20235;-74
2021/04/19 21:08:22;;;;;;;37.85;20.67;;;;;;;11.26;60.24;100766.44;10268897;28;20245;-74
2021/04/19 21:13:24;;;;;;;36.22;20.10;;;;;;;11.24;60.08;100766.56;10268352;28;20629;-73
2021/04/19 21:18:26;;;;;;;39.08;20.70;;;;;;;11.25;59.96;100756.66;10337286;28;20616;-74
2021/04/19 21:23:29;;;;;;;36.13;19.98;;;;;;;11.18;60.17;100758.97;10291870;28;20329;-74
2021/04/19 21:28:32;;;;;;;37.30;20.52;;;;;;;11.19;60.37;100755.31;10261701;28;20346;-74
2021/04/19 21:33:34;;;;;;;35.95;20.58;;;;;;;11.15;60.57;100755.66;10247433;28;20228;-74
2021/04/19 21:38:38;;;;;;;40.63;21.17;;;;;;;11.03;60.83;100744.00;10226724;28;20342;-73
2021/04/19 21:43:42;;;;;;;40.90;20.45;;;;;;;10.92;60.87;100746.66;10225738;28;20251;-73
2021/04/19 21:48:44;;;;;;;38.85;21.42;;;;;;;10.82;61.29;100751.88;10225367;28;21535;-74
2021/04/19 21:53:46;;;;;;;38.38;20.75;;;;;;;10.68;61.54;100742.16;10229022;28;21514;-74
2021/04/19 21:58:49;;;;;;;39.92;21.20;;;;;;;10.60;61.67;100734.69;10226795;28;20290;-74
2021/04/19 22:03:51;;;;;;;37.70;21.83;;;;;;;10.43;62.05;100743.16;10225880;28;21474;-74
2021/04/19 22:08:54;;;;;;;43.42;21.38;;;;;;;10.37;62.35;100740.94;10244782;28;20236;-74
2021/04/19 22:13:57;;;;;;;42.97;22.25;;;;;;;10.22;62.42;100742.94;10243668;28;20227;-74
2021/04/19 22:18:59;;;;;;;41.35;20.92;;;;;;;9.61;64.34;100742.84;10317255;28;20246;-74
2021/04/19 22:24:01;;;;;;;38.10;21.00;;;;;;;9.53;64.57;100739.00;10312643;28;20235;-74
2021/04/19 22:29:06;;;;;;;37.92;20.20;;;;;;;9.55;64.39;100737.94;10314866;28;20360;-74
2021/04/19 22:34:08;;;;;;;46.78;22.65;;;;;;;9.53;64.23;100733.63;10311623;28;20239;-74
2021/04/19 22:39:10;;;;;;;41.75;21.10;;;;;;;9.68;63.88;100743.25;10312792;28;20249;-74
2021/04/19 22:44:13;;;;;;;40.08;21.15;;;;;;;9.73;63.86;100733.06;10311788;28;20246;-74
2021/04/19 22:49:15;;;;;;;44.28;23.30;;;;;;;9.81;63.02;100730.69;10311253;28;20247;-74
2021/04/19 22:54:17;;;;;;;41.25;21.17;;;;;;;9.84;62.92;100732.28;10310121;28;20227;-74
2021/04/19 22:59:20;;;;;;;44.13;21.60;;;;;;;9.91;62.96;100729.06;10313139;28;20285;-74